createdAt,value
2022-10-10T00:05:17.232Z,5.50
2022-10-10T00:10:39.000Z,5.93
2022-10-10T00:16:01.165Z,5.78
2022-10-10T00:21:22.957Z,5.95
2022-10-10T00:26:44.657Z,5.60
2022-10-10T00:32:06.348Z,5.60
2022-10-10T00:37:28.046Z,5.60
2022-10-10T00:42:49.944Z,5.45
2022-10-10T00:48:23.008Z,6.20
2022-10-10T00:53:47.862Z,5.90
2022-10-10T00:59:12.405Z,6.22
2022-10-10T01:04:45.185Z,5.72
2022-10-10T01:10:14.105Z,6.13
2022-10-10T01:15:56.979Z,5.55
2022-10-10T01:22:04.149Z,6.00
2022-10-10T01:27:47.636Z,5.65
2022-10-10T01:33:16.049Z,5.95
2022-10-10T01:38:57.765Z,5.68
2022-10-10T01:44:21.772Z,5.78
2022-10-10T01:49:45.099Z,6.03
2022-10-10T01:55:36.803Z,5.70
2022-10-10T02:01:19.626Z,6.05
2022-10-10T02:06:47.265Z,6.18
2022-10-10T02:12:12.547Z,6.50
2022-10-10T02:17:37.699Z,6.18
2022-10-10T02:22:59.586Z,6.07
2022-10-10T02:28:40.223Z,5.97
2022-10-10T02:34:17.738Z,5.75
2022-10-10T02:39:44.790Z,6.15
2022-10-10T02:45:07.158Z,6.35
2022-10-10T02:50:30.191Z,6.20
2022-10-10T02:55:51.918Z,6.25
2022-10-10T03:01:13.658Z,6.53
2022-10-10T03:06:35.863Z,6.68
2022-10-10T03:11:57.632Z,6.53
2022-10-10T03:17:19.331Z,6.95
2022-10-10T03:22:41.022Z,5.75
2022-10-10T03:28:02.787Z,5.85
2022-10-10T03:33:24.570Z,6.40
2022-10-10T03:38:46.250Z,6.30
2022-10-10T03:44:07.935Z,6.18
2022-10-10T03:49:29.647Z,6.70
2022-10-10T03:54:51.339Z,7.07
2022-10-10T04:00:13.910Z,6.60
2022-10-10T04:05:37.650Z,6.43
2022-10-10T04:10:59.353Z,7.70
2022-10-10T04:16:21.089Z,6.50
2022-10-10T04:21:42.791Z,6.35
2022-10-10T04:27:04.614Z,6.25
2022-10-10T04:32:26.388Z,6.80
2022-10-10T04:37:48.104Z,7.10
2022-10-10T04:43:09.885Z,7.22
2022-10-10T04:48:31.578Z,6.45
2022-10-10T04:53:53.255Z,6.72
2022-10-10T04:59:14.941Z,6.85
2022-10-10T05:04:36.739Z,6.97
2022-10-10T05:09:58.445Z,7.85
2022-10-10T05:15:21.421Z,6.80
2022-10-10T05:20:43.979Z,6.93
2022-10-10T05:26:05.731Z,6.93
2022-10-10T05:31:28.792Z,7.30
2022-10-10T05:36:50.659Z,6.75
2022-10-10T05:42:13.975Z,6.88
2022-10-10T05:47:35.765Z,6.63
2022-10-10T05:52:57.513Z,7.38
2022-10-10T05:58:19.697Z,7.95
2022-10-10T06:03:41.480Z,7.60
2022-10-10T06:09:03.646Z,7.25
2022-10-10T06:14:25.497Z,8.27
2022-10-10T06:19:47.238Z,7.75
2022-10-10T06:25:23.891Z,7.63
2022-10-10T06:30:51.481Z,8.23
2022-10-10T06:36:14.210Z,7.32
2022-10-10T06:41:36.073Z,8.00
2022-10-10T06:46:58.080Z,7.13
2022-10-10T06:52:19.907Z,7.80
2022-10-10T06:57:42.726Z,7.35
2022-10-10T07:03:04.445Z,7.20
2022-10-10T07:08:26.805Z,7.18
2022-10-10T07:13:50.960Z,6.93
2022-10-10T07:19:12.756Z,6.95
2022-10-10T07:24:34.506Z,7.97
2022-10-10T07:29:56.280Z,6.90
2022-10-10T07:35:18.134Z,7.25
2022-10-10T07:40:41.275Z,7.22
2022-10-10T07:46:05.869Z,6.93
2022-10-10T07:51:30.215Z,6.90
2022-10-10T07:56:52.047Z,6.85
2022-10-10T08:02:13.944Z,6.85
2022-10-10T08:07:35.843Z,7.07
2022-10-10T08:12:57.564Z,6.90
2022-10-10T08:18:19.692Z,6.78
2022-10-10T08:23:41.965Z,7.43
2022-10-10T08:29:03.829Z,6.82
2022-10-10T08:34:25.629Z,8.88
2022-10-10T08:39:47.451Z,7.43
2022-10-10T08:45:15.053Z,7.03
2022-10-10T08:50:46.445Z,6.68
2022-10-10T08:56:16.410Z,7.28
2022-10-10T09:02:17.843Z,6.25
2022-10-10T09:07:34.703Z,6.57
2022-10-10T09:13:12.789Z,7.60
2022-10-10T09:18:53.699Z,7.00
2022-10-10T09:24:32.287Z,6.05
2022-10-10T09:30:05.886Z,7.22
2022-10-10T09:35:47.659Z,6.43
2022-10-10T09:41:16.049Z,5.93
2022-10-10T09:46:38.442Z,5.63
2022-10-10T09:52:12.091Z,5.78
2022-10-10T09:57:40.815Z,5.28
2022-10-10T10:03:08.509Z,5.20
2022-10-10T10:08:35.669Z,4.88
2022-10-10T10:13:57.884Z,4.65
2022-10-10T10:19:37.353Z,4.30
2022-10-10T10:25:19.968Z,6.18
2022-10-10T10:30:43.459Z,4.30
2022-10-10T10:36:29.827Z,2.97
2022-10-10T10:42:06.182Z,2.13
2022-10-10T10:47:51.087Z,2.67
2022-10-10T10:53:22.180Z,2.40
2022-10-10T10:59:30.367Z,2.35
2022-10-10T11:05:25.052Z,2.10
2022-10-10T11:11:01.805Z,2.25
2022-10-10T11:16:47.557Z,2.30
2022-10-10T11:22:18.512Z,2.15
2022-10-10T11:27:48.522Z,2.40
2022-10-10T11:33:10.157Z,2.47
2022-10-10T11:38:38.541Z,2.13
2022-10-10T11:44:15.267Z,2.65
2022-10-10T11:49:53.301Z,2.72
2022-10-10T11:55:36.391Z,3.30
2022-10-10T12:01:06.026Z,2.80
2022-10-10T12:06:38.658Z,2.65
2022-10-10T12:12:12.698Z,3.10
2022-10-10T12:17:39.811Z,3.20
2022-10-10T12:23:24.660Z,2.95
2022-10-10T12:29:05.663Z,3.15
2022-10-10T12:34:54.765Z,3.08
2022-10-10T12:40:21.519Z,3.00
2022-10-10T12:46:18.721Z,3.00
2022-10-10T12:51:42.138Z,3.53
2022-10-10T12:57:18.771Z,3.03
2022-10-10T13:02:44.111Z,3.60
2022-10-10T13:08:11.959Z,4.70
2022-10-10T13:13:34.258Z,3.20
2022-10-10T13:18:58.251Z,4.03
2022-10-10T13:24:31.571Z,5.13
2022-10-10T13:29:55.064Z,6.38
2022-10-10T13:35:21.265Z,5.82
2022-10-10T13:40:44.379Z,4.70
2022-10-10T13:46:06.579Z,4.30
2022-10-10T13:51:43.635Z,3.83
2022-10-10T13:57:10.857Z,4.63
2022-10-10T14:02:36.193Z,3.40
2022-10-10T14:07:59.056Z,3.55
2022-10-10T14:13:20.891Z,3.58
2022-10-10T14:18:42.615Z,3.13
2022-10-10T14:24:04.607Z,3.13
2022-10-10T14:29:26.317Z,3.63
2022-10-10T14:34:48.210Z,3.20
2022-10-10T14:40:22.940Z,3.88
2022-10-10T14:45:45.094Z,3.45
2022-10-10T14:51:33.789Z,3.78
2022-10-10T14:57:07.437Z,3.20
2022-10-10T15:02:31.830Z,3.28
2022-10-10T15:07:53.871Z,3.38
2022-10-10T15:13:16.067Z,3.65
2022-10-10T15:18:53.623Z,3.35
2022-10-10T15:24:16.279Z,3.70
2022-10-10T15:29:39.470Z,3.50
2022-10-10T15:35:01.239Z,3.50
2022-10-10T15:40:23.879Z,4.63
2022-10-10T15:45:55.814Z,3.22
2022-10-10T15:51:18.442Z,4.00
2022-10-10T15:56:42.222Z,3.42
2022-10-10T16:02:03.959Z,3.50
2022-10-10T16:07:29.518Z,3.85
2022-10-10T16:12:54.716Z,3.92
2022-10-10T16:18:16.410Z,3.63
2022-10-10T16:23:38.517Z,3.97
2022-10-10T16:29:01.595Z,4.20
2022-10-10T16:34:23.293Z,3.53
2022-10-10T16:39:45.003Z,3.67
2022-10-10T16:45:07.394Z,3.97
2022-10-10T16:50:29.086Z,3.85
2022-10-10T16:55:50.849Z,4.00
2022-10-10T17:01:15.664Z,4.57
2022-10-10T17:06:37.831Z,3.53
2022-10-10T17:11:59.602Z,4.28
2022-10-10T17:17:22.485Z,3.88
2022-10-10T17:22:44.264Z,4.60
2022-10-10T17:28:06.020Z,4.30
2022-10-10T17:33:27.836Z,4.15
2022-10-10T17:38:49.600Z,5.03
2022-10-10T17:44:12.131Z,4.47
2022-10-10T17:49:33.903Z,5.85
2022-10-10T17:54:55.585Z,6.80
2022-10-10T18:00:17.419Z,6.40
2022-10-10T18:05:40.032Z,6.82
2022-10-10T18:11:03.164Z,5.82
2022-10-10T18:16:25.849Z,4.25
2022-10-10T18:21:48.900Z,4.30
2022-10-10T18:27:10.691Z,4.72
2022-10-10T18:32:32.614Z,3.42
2022-10-10T18:37:54.395Z,2.83
2022-10-10T18:43:18.210Z,3.22
2022-10-10T18:48:40.548Z,4.00
2022-10-10T18:54:07.768Z,2.45
2022-10-10T18:59:29.689Z,2.83
2022-10-10T19:04:51.436Z,3.38
2022-10-10T19:10:13.181Z,3.65
2022-10-10T19:15:35.270Z,4.60
2022-10-10T19:21:05.597Z,4.25
2022-10-10T19:26:33.184Z,4.75
2022-10-10T19:31:55.886Z,4.13
2022-10-10T19:37:19.396Z,4.88
2022-10-10T19:42:41.120Z,4.47
2022-10-10T19:48:02.861Z,5.28
2022-10-10T19:53:25.282Z,4.97
2022-10-10T19:58:47.690Z,6.65
2022-10-10T20:04:09.505Z,3.95
2022-10-10T20:09:31.274Z,4.82
2022-10-10T20:14:53.114Z,6.68
2022-10-10T20:20:14.994Z,5.07
2022-10-10T20:25:41.713Z,6.15
2022-10-10T20:31:03.558Z,6.07
2022-10-10T20:36:25.379Z,4.30
2022-10-10T20:41:47.223Z,3.92
2022-10-10T20:47:08.903Z,4.68
2022-10-10T20:52:30.900Z,5.43
2022-10-10T20:57:52.917Z,5.45
2022-10-10T21:03:14.606Z,5.55
2022-10-10T21:08:36.538Z,5.57
2022-10-10T21:13:59.596Z,4.93
2022-10-10T21:19:21.411Z,5.15
2022-10-10T21:24:43.112Z,4.72
2022-10-10T21:30:05.502Z,5.22
2022-10-10T21:35:27.310Z,5.38
2022-10-10T21:40:49.350Z,6.55
2022-10-10T21:46:14.168Z,7.25
2022-10-10T21:51:38.426Z,6.13
2022-10-10T21:57:00.156Z,6.32
2022-10-10T22:02:21.885Z,5.60
2022-10-10T22:07:45.204Z,5.78
2022-10-10T22:13:07.066Z,5.85
2022-10-10T22:18:29.113Z,5.70
2022-10-10T22:23:50.824Z,5.65
2022-10-10T22:29:12.522Z,6.15
2022-10-10T22:34:34.240Z,5.60
2022-10-10T22:39:56.077Z,6.22
2022-10-10T22:45:18.137Z,6.35
2022-10-10T22:50:39.911Z,5.57
2022-10-10T22:56:02.020Z,6.72
2022-10-10T23:01:25.953Z,6.00
2022-10-10T23:06:47.890Z,6.13
2022-10-10T23:12:10.139Z,6.13
2022-10-10T23:17:31.832Z,6.47
2022-10-10T23:22:54.151Z,6.93
2022-10-10T23:28:16.766Z,5.75
2022-10-10T23:33:38.953Z,6.00
2022-10-10T23:39:00.675Z,6.30
2022-10-10T23:44:22.449Z,6.95
2022-10-10T23:49:44.766Z,6.30
2022-10-10T23:55:06.883Z,6.22
